Search for airport 
image banner adimage banner adimage banner ad
image banner ad

7C3 - Monona Muni

Located in Monona, United States

ICAO - 7C3, IATA -

Data provided by Airmate  

General information

Coordinates: N43°1'59" W91°20'47"
Elevation is 1147 feet MSL.
Magnetic variation is 02° East
View others Airports in Iowa

Operational data

Special qualification required
Current time UTC:
Current local time:
Weather at : KPDC - Prairie Du Chien Muni ( 18 km )
METAR: KPDC 150955Z AUTO 08003KT 10SM CLR 13/11 A3009 RMK AO2 T01330105
View NOTAMs / SUP AIP / TFR affecting this airport [VIEW]
Communications frequencies: [VIEW]

Runways:

RWY identifierQFULength (ft)Width (ft)SurfaceLDA (ft)
18179°2650120GRASS
36359°2650120GRASS

Airport contact information

Address: Monona United States

Satellite view of 7C3